Aviation Digital Data Service (ADDS)

Output produced by TAFs form (2043 UTC 28 June 2017)
found at http://aviationweather.gov/adds/tafs/
 
KMTJ 281751Z 2818/2918 28010KT P6SM SKC 
     FM290000 24020G32KT P6SM FEW250 
     FM290200 20013G21KT P6SM SKC 
     FM290300 18008KT P6SM SKC 
     FM291400 23005KT P6SM SKC 
     FM291600 29006KT P6SM SKC